Etusivu
METAR-TAF:

METAR-TAF

Lentoasemat :

Seinäjoen lentoasema

Seinäjoki-Ilmajoki, Suomi

Leveyspiiri: 62-41-37N, Pituuspiiri: 022-49-55E, korkeus merenpinnasta: 91 m

Tämänhetkinen sää

Tämä raportti tehtiin 29 minuuttia sitten, kello 02.50 UTC
Tuuli 5 kn kaakosta, vaihdellen idän ja etelän välillä
Lämpötila -7°C
Kosteus 93%
Ilmanpaine 1033 hPa
Näkyvyys 10 km tai enemmän
Muutamia pilviä 500 ft:n korkeudessa
Hajonneita pilviä 700 ft:n korkeudessa
Pilvistä 900 ft:n korkeudessa

METAR: EFSI 160250Z AUTO 14005KT 100V170 9999 FEW005 BKN007 OVC009 M07/M08 Q1033

Aika: 05:19 (03:19 UTC)


TAF: puuttuu

Säähavainnot ja -ennusteet yli 4000 lentoasemalta (METAR- ja TAF-raportit).

Käytössä olevat sääasemat on merkitty karttaan keltaisilla ja punaisilla pisteillä.

Aseta hiiri pisteen päälle nähdäksesi sääaseman nimen.

Klikkaa sitten nähdäksesi säähavainnot ja -ennusteet.

Kartan vaihtaminen: klikkaa mustalla rastilla varustettuja vihreitä pisteitä, niin voit zoomata sisään; viivalla varustettua vihreää pistettä, niin voit zoomata ulos tai vihreitä nuolia, niin pääset viereisille kartoille.


METAR-TAF: